sensor_id;sensor_type;location;lat;lon;timestamp;P1;durP1;ratioP1;P2;durP2;ratioP2
55601;SDS011;59921;51.332;12.410;2023-03-31T00:01:48;3.75;;;2.30;;
55601;SDS011;59921;51.332;12.410;2023-03-31T00:04:13;4.20;;;2.20;;
55601;SDS011;59921;51.332;12.410;2023-03-31T00:06:40;3.80;;;2.17;;
55601;SDS011;59921;51.332;12.410;2023-03-31T00:09:07;3.50;;;2.40;;
55601;SDS011;59921;51.332;12.410;2023-03-31T00:11:35;3.38;;;2.20;;
55601;SDS011;59921;51.332;12.410;2023-03-31T00:14:02;3.63;;;2.30;;
55601;SDS011;59921;51.332;12.410;2023-03-31T00:16:31;3.47;;;2.20;;
55601;SDS011;59921;51.332;12.410;2023-03-31T00:19:00;3.50;;;2.00;;
55601;SDS011;59921;51.332;12.410;2023-03-31T00:21:26;3.80;;;2.20;;
55601;SDS011;59921;51.332;12.410;2023-03-31T00:24:02;3.42;;;2.10;;
55601;SDS011;59921;51.332;12.410;2023-03-31T00:26:29;3.47;;;2.20;;
55601;SDS011;59921;51.332;12.410;2023-03-31T00:28:56;3.00;;;2.00;;
55601;SDS011;59921;51.332;12.410;2023-03-31T00:31:22;3.00;;;2.15;;
55601;SDS011;59921;51.332;12.410;2023-03-31T00:33:48;2.83;;;1.88;;
55601;SDS011;59921;51.332;12.410;2023-03-31T00:36:14;3.58;;;2.10;;
55601;SDS011;59921;51.332;12.410;2023-03-31T00:38:47;3.25;;;1.73;;
55601;SDS011;59921;51.332;12.410;2023-03-31T00:41:13;2.78;;;1.90;;
55601;SDS011;59921;51.332;12.410;2023-03-31T00:43:39;2.45;;;1.75;;
55601;SDS011;59921;51.332;12.410;2023-03-31T00:48:51;3.72;;;2.20;;
55601;SDS011;59921;51.332;12.410;2023-03-31T00:51:21;3.15;;;1.98;;
55601;SDS011;59921;51.332;12.410;2023-03-31T00:53:51;3.28;;;1.90;;
55601;SDS011;59921;51.332;12.410;2023-03-31T00:56:21;3.78;;;2.08;;
55601;SDS011;59921;51.332;12.410;2023-03-31T00:58:48;3.13;;;1.92;;
55601;SDS011;59921;51.332;12.410;2023-03-31T01:01:15;3.55;;;1.98;;
55601;SDS011;59921;51.332;12.410;2023-03-31T01:03:43;2.50;;;1.65;;
55601;SDS011;59921;51.332;12.410;2023-03-31T01:06:11;3.20;;;2.00;;
55601;SDS011;59921;51.332;12.410;2023-03-31T01:08:39;2.80;;;1.85;;
55601;SDS011;59921;51.332;12.410;2023-03-31T01:11:06;2.53;;;1.70;;
55601;SDS011;59921;51.332;12.410;2023-03-31T01:13:36;2.35;;;1.50;;
55601;SDS011;59921;51.332;12.410;2023-03-31T01:16:03;2.63;;;1.63;;
55601;SDS011;59921;51.332;12.410;2023-03-31T01:18:29;2.42;;;1.70;;
55601;SDS011;59921;51.332;12.410;2023-03-31T01:46:09;2.60;;;1.70;;
55601;SDS011;59921;51.332;12.410;2023-03-31T01:51:32;1.90;;;1.48;;
55601;SDS011;59921;51.332;12.410;2023-03-31T01:56:54;2.00;;;1.40;;
55601;SDS011;59921;51.332;12.410;2023-03-31T01:59:25;2.63;;;1.52;;
55601;SDS011;59921;51.332;12.410;2023-03-31T02:01:56;1.97;;;1.50;;
55601;SDS011;59921;51.332;12.410;2023-03-31T02:05:01;2.72;;;1.40;;
55601;SDS011;59921;51.332;12.410;2023-03-31T02:07:33;2.08;;;1.50;;
55601;SDS011;59921;51.332;12.410;2023-03-31T02:10:03;2.50;;;1.30;;
55601;SDS011;59921;51.332;12.410;2023-03-31T02:12:32;2.55;;;1.65;;
55601;SDS011;59921;51.332;12.410;2023-03-31T02:15:01;2.90;;;1.60;;
55601;SDS011;59921;51.332;12.410;2023-03-31T02:17:29;2.88;;;1.55;;
55601;SDS011;59921;51.332;12.410;2023-03-31T02:20:00;2.67;;;1.50;;
55601;SDS011;59921;51.332;12.410;2023-03-31T02:22:34;2.38;;;1.55;;
55601;SDS011;59921;51.332;12.410;2023-03-31T02:25:02;2.55;;;1.40;;
55601;SDS011;59921;51.332;12.410;2023-03-31T02:27:30;2.60;;;1.40;;
55601;SDS011;59921;51.332;12.410;2023-03-31T02:29:59;3.03;;;1.58;;
55601;SDS011;59921;51.332;12.410;2023-03-31T02:32:36;2.58;;;1.48;;
55601;SDS011;59921;51.332;12.410;2023-03-31T02:35:06;2.42;;;1.63;;
55601;SDS011;59921;51.332;12.410;2023-03-31T02:37:35;2.17;;;1.40;;
55601;SDS011;59921;51.332;12.410;2023-03-31T02:40:03;2.28;;;1.42;;
55601;SDS011;59921;51.332;12.410;2023-03-31T02:42:35;2.00;;;1.33;;
55601;SDS011;59921;51.332;12.410;2023-03-31T02:45:05;2.35;;;1.40;;
55601;SDS011;59921;51.332;12.410;2023-03-31T02:47:51;2.22;;;1.40;;
55601;SDS011;59921;51.332;12.410;2023-03-31T02:50:18;2.38;;;1.55;;
55601;SDS011;59921;51.332;12.410;2023-03-31T02:56:24;2.25;;;1.40;;
55601;SDS011;59921;51.332;12.410;2023-03-31T03:01:50;2.83;;;1.58;;
55601;SDS011;59921;51.332;12.410;2023-03-31T03:10:26;2.33;;;1.40;;
55601;SDS011;59921;51.332;12.410;2023-03-31T03:13:08;2.80;;;1.45;;
55601;SDS011;59921;51.332;12.410;2023-03-31T03:15:44;2.20;;;1.40;;
55601;SDS011;59921;51.332;12.410;2023-03-31T03:18:13;2.22;;;1.52;;
55601;SDS011;59921;51.332;12.410;2023-03-31T03:20:41;2.50;;;1.40;;
55601;SDS011;59921;51.332;12.410;2023-03-31T03:23:12;2.33;;;1.50;;
55601;SDS011;59921;51.332;12.410;2023-03-31T03:25:38;2.55;;;1.40;;
55601;SDS011;59921;51.332;12.410;2023-03-31T03:28:03;2.58;;;1.58;;
55601;SDS011;59921;51.332;12.410;2023-03-31T03:30:29;3.03;;;1.70;;
55601;SDS011;59921;51.332;12.410;2023-03-31T03:32:54;2.63;;;1.60;;
55601;SDS011;59921;51.332;12.410;2023-03-31T03:35:20;2.35;;;1.55;;
55601;SDS011;59921;51.332;12.410;2023-03-31T03:37:45;3.00;;;1.60;;
55601;SDS011;59921;51.332;12.410;2023-03-31T03:40:11;2.47;;;1.42;;
55601;SDS011;59921;51.332;12.410;2023-03-31T03:42:36;2.13;;;1.33;;
55601;SDS011;59921;51.332;12.410;2023-03-31T03:45:02;2.00;;;1.38;;
55601;SDS011;59921;51.332;12.410;2023-03-31T03:47:28;2.63;;;1.63;;
55601;SDS011;59921;51.332;12.410;2023-03-31T03:49:54;2.80;;;1.70;;
55601;SDS011;59921;51.332;12.410;2023-03-31T03:52:19;2.20;;;1.60;;
55601;SDS011;59921;51.332;12.410;2023-03-31T03:54:45;2.67;;;1.58;;
55601;SDS011;59921;51.332;12.410;2023-03-31T03:57:11;2.42;;;1.60;;
55601;SDS011;59921;51.332;12.410;2023-03-31T03:59:36;2.83;;;1.65;;
55601;SDS011;59921;51.332;12.410;2023-03-31T04:02:02;2.55;;;1.58;;
55601;SDS011;59921;51.332;12.410;2023-03-31T04:04:27;3.47;;;1.70;;
55601;SDS011;59921;51.332;12.410;2023-03-31T04:06:52;2.50;;;1.48;;
55601;SDS011;59921;51.332;12.410;2023-03-31T04:09:18;2.33;;;1.60;;
55601;SDS011;59921;51.332;12.410;2023-03-31T04:11:43;2.53;;;1.80;;
55601;SDS011;59921;51.332;12.410;2023-03-31T04:14:09;2.65;;;1.63;;
55601;SDS011;59921;51.332;12.410;2023-03-31T04:16:34;2.53;;;1.63;;
55601;SDS011;59921;51.332;12.410;2023-03-31T04:19:00;3.65;;;1.60;;
55601;SDS011;59921;51.332;12.410;2023-03-31T04:21:27;2.75;;;1.70;;
55601;SDS011;59921;51.332;12.410;2023-03-31T04:23:54;2.40;;;1.38;;
55601;SDS011;59921;51.332;12.410;2023-03-31T04:26:26;2.35;;;1.35;;
55601;SDS011;59921;51.332;12.410;2023-03-31T04:29:03;3.00;;;1.58;;
55601;SDS011;59921;51.332;12.410;2023-03-31T04:31:30;2.95;;;1.70;;
55601;SDS011;59921;51.332;12.410;2023-03-31T04:33:55;2.53;;;1.60;;
55601;SDS011;59921;51.332;12.410;2023-03-31T04:36:26;2.67;;;1.60;;
55601;SDS011;59921;51.332;12.410;2023-03-31T04:38:53;2.17;;;1.50;;
55601;SDS011;59921;51.332;12.410;2023-03-31T04:41:19;2.70;;;1.70;;
55601;SDS011;59921;51.332;12.410;2023-03-31T04:43:45;2.55;;;1.40;;
55601;SDS011;59921;51.332;12.410;2023-03-31T04:46:11;3.28;;;1.80;;
55601;SDS011;59921;51.332;12.410;2023-03-31T04:48:37;2.90;;;1.52;;
55601;SDS011;59921;51.332;12.410;2023-03-31T04:51:03;2.40;;;1.50;;
55601;SDS011;59921;51.332;12.410;2023-03-31T04:53:29;2.75;;;1.52;;
55601;SDS011;59921;51.332;12.410;2023-03-31T04:55:54;2.65;;;1.60;;
55601;SDS011;59921;51.332;12.410;2023-03-31T04:58:20;2.05;;;1.30;;
55601;SDS011;59921;51.332;12.410;2023-03-31T05:00:45;2.05;;;1.30;;
55601;SDS011;59921;51.332;12.410;2023-03-31T05:03:11;3.25;;;1.30;;
55601;SDS011;59921;51.332;12.410;2023-03-31T05:05:36;2.50;;;1.48;;
55601;SDS011;59921;51.332;12.410;2023-03-31T05:08:02;2.58;;;1.60;;
55601;SDS011;59921;51.332;12.410;2023-03-31T05:10:28;1.63;;;1.33;;
55601;SDS011;59921;51.332;12.410;2023-03-31T05:12:54;3.13;;;1.70;;
55601;SDS011;59921;51.332;12.410;2023-03-31T05:15:19;2.25;;;1.33;;
55601;SDS011;59921;51.332;12.410;2023-03-31T05:17:45;2.38;;;1.50;;
55601;SDS011;59921;51.332;12.410;2023-03-31T05:20:11;2.30;;;1.40;;
55601;SDS011;59921;51.332;12.410;2023-03-31T05:22:38;2.08;;;1.30;;
55601;SDS011;59921;51.332;12.410;2023-03-31T05:25:05;2.75;;;1.70;;
55601;SDS011;59921;51.332;12.410;2023-03-31T05:27:32;2.40;;;1.60;;
55601;SDS011;59921;51.332;12.410;2023-03-31T05:29:58;3.10;;;1.77;;
55601;SDS011;59921;51.332;12.410;2023-03-31T05:32:24;1.90;;;1.35;;
55601;SDS011;59921;51.332;12.410;2023-03-31T05:34:50;2.10;;;1.30;;
55601;SDS011;59921;51.332;12.410;2023-03-31T05:37:17;2.30;;;1.50;;
55601;SDS011;59921;51.332;12.410;2023-03-31T05:39:44;2.50;;;1.40;;
55601;SDS011;59921;51.332;12.410;2023-03-31T05:42:09;3.00;;;1.67;;
55601;SDS011;59921;51.332;12.410;2023-03-31T05:44:35;2.45;;;1.40;;
55601;SDS011;59921;51.332;12.410;2023-03-31T05:47:00;2.15;;;1.40;;
55601;SDS011;59921;51.332;12.410;2023-03-31T05:49:26;2.38;;;1.40;;
55601;SDS011;59921;51.332;12.410;2023-03-31T05:51:51;1.80;;;1.23;;
55601;SDS011;59921;51.332;12.410;2023-03-31T05:54:20;2.25;;;1.40;;
55601;SDS011;59921;51.332;12.410;2023-03-31T05:56:47;2.00;;;1.30;;
55601;SDS011;59921;51.332;12.410;2023-03-31T05:59:12;1.63;;;1.20;;
55601;SDS011;59921;51.332;12.410;2023-03-31T06:01:39;2.05;;;1.38;;
55601;SDS011;59921;51.332;12.410;2023-03-31T06:04:05;2.78;;;1.45;;
55601;SDS011;59921;51.332;12.410;2023-03-31T06:06:30;3.15;;;1.45;;
55601;SDS011;59921;51.332;12.410;2023-03-31T06:08:57;2.80;;;1.50;;
55601;SDS011;59921;51.332;12.410;2023-03-31T06:11:22;3.00;;;1.27;;
55601;SDS011;59921;51.332;12.410;2023-03-31T06:13:48;2.08;;;1.25;;
55601;SDS011;59921;51.332;12.410;2023-03-31T06:16:14;2.45;;;1.27;;
55601;SDS011;59921;51.332;12.410;2023-03-31T06:18:41;2.50;;;1.38;;
55601;SDS011;59921;51.332;12.410;2023-03-31T06:21:07;2.45;;;1.30;;
55601;SDS011;59921;51.332;12.410;2023-03-31T06:23:36;2.47;;;1.50;;
55601;SDS011;59921;51.332;12.410;2023-03-31T06:26:05;1.45;;;1.05;;
55601;SDS011;59921;51.332;12.410;2023-03-31T06:28:35;1.80;;;1.17;;
55601;SDS011;59921;51.332;12.410;2023-03-31T06:31:02;1.67;;;1.20;;
55601;SDS011;59921;51.332;12.410;2023-03-31T06:33:29;1.80;;;1.25;;
55601;SDS011;59921;51.332;12.410;2023-03-31T06:35:55;2.42;;;1.40;;
55601;SDS011;59921;51.332;12.410;2023-03-31T06:38:21;2.22;;;1.38;;
55601;SDS011;59921;51.332;12.410;2023-03-31T06:40:46;2.22;;;1.33;;
55601;SDS011;59921;51.332;12.410;2023-03-31T06:43:12;3.05;;;1.30;;
55601;SDS011;59921;51.332;12.410;2023-03-31T06:45:37;1.95;;;1.33;;
55601;SDS011;59921;51.332;12.410;2023-03-31T06:48:03;2.13;;;1.23;;
55601;SDS011;59921;51.332;12.410;2023-03-31T06:50:29;2.33;;;1.42;;
55601;SDS011;59921;51.332;12.410;2023-03-31T06:52:54;2.30;;;1.38;;
55601;SDS011;59921;51.332;12.410;2023-03-31T06:55:20;1.48;;;1.10;;
55601;SDS011;59921;51.332;12.410;2023-03-31T06:57:45;1.92;;;1.25;;
55601;SDS011;59921;51.332;12.410;2023-03-31T07:00:11;2.72;;;1.50;;
55601;SDS011;59921;51.332;12.410;2023-03-31T07:02:37;2.83;;;1.40;;
55601;SDS011;59921;51.332;12.410;2023-03-31T07:05:02;2.22;;;1.20;;
55601;SDS011;59921;51.332;12.410;2023-03-31T07:07:30;2.13;;;1.40;;
55601;SDS011;59921;51.332;12.410;2023-03-31T07:09:56;1.80;;;1.30;;
55601;SDS011;59921;51.332;12.410;2023-03-31T07:12:22;1.65;;;1.20;;
55601;SDS011;59921;51.332;12.410;2023-03-31T07:14:47;2.58;;;1.38;;
55601;SDS011;59921;51.332;12.410;2023-03-31T07:17:13;1.70;;;1.10;;
55601;SDS011;59921;51.332;12.410;2023-03-31T07:19:38;1.95;;;1.15;;
55601;SDS011;59921;51.332;12.410;2023-03-31T07:22:06;2.17;;;1.23;;
55601;SDS011;59921;51.332;12.410;2023-03-31T07:24:32;2.15;;;1.13;;
55601;SDS011;59921;51.332;12.410;2023-03-31T07:26:57;4.20;;;1.10;;
55601;SDS011;59921;51.332;12.410;2023-03-31T07:29:23;4.68;;;1.42;;
55601;SDS011;59921;51.332;12.410;2023-03-31T07:31:48;7.32;;;1.60;;
55601;SDS011;59921;51.332;12.410;2023-03-31T07:34:14;9.23;;;1.40;;
55601;SDS011;59921;51.332;12.410;2023-03-31T07:36:40;6.95;;;1.65;;
55601;SDS011;59921;51.332;12.410;2023-03-31T07:39:06;6.13;;;1.42;;
55601;SDS011;59921;51.332;12.410;2023-03-31T07:41:32;5.70;;;1.40;;
55601;SDS011;59921;51.332;12.410;2023-03-31T07:43:57;7.63;;;1.65;;
55601;SDS011;59921;51.332;12.410;2023-03-31T07:46:23;7.68;;;1.73;;
55601;SDS011;59921;51.332;12.410;2023-03-31T07:48:51;7.03;;;1.48;;
55601;SDS011;59921;51.332;12.410;2023-03-31T07:51:18;4.72;;;1.52;;
55601;SDS011;59921;51.332;12.410;2023-03-31T07:53:46;4.85;;;1.40;;
55601;SDS011;59921;51.332;12.410;2023-03-31T07:56:14;4.57;;;1.40;;
55601;SDS011;59921;51.332;12.410;2023-03-31T07:58:41;6.15;;;1.48;;
55601;SDS011;59921;51.332;12.410;2023-03-31T08:01:08;5.43;;;1.40;;
55601;SDS011;59921;51.332;12.410;2023-03-31T08:03:33;5.38;;;1.30;;
55601;SDS011;59921;51.332;12.410;2023-03-31T08:05:59;5.13;;;1.75;;
55601;SDS011;59921;51.332;12.410;2023-03-31T08:08:24;4.22;;;1.10;;
55601;SDS011;59921;51.332;12.410;2023-03-31T08:10:50;4.78;;;1.52;;
55601;SDS011;59921;51.332;12.410;2023-03-31T08:13:15;3.90;;;1.20;;
55601;SDS011;59921;51.332;12.410;2023-03-31T08:15:41;5.53;;;1.27;;
55601;SDS011;59921;51.332;12.410;2023-03-31T08:18:07;5.97;;;1.45;;
55601;SDS011;59921;51.332;12.410;2023-03-31T08:20:32;4.50;;;1.40;;
55601;SDS011;59921;51.332;12.410;2023-03-31T08:22:58;4.55;;;1.38;;
55601;SDS011;59921;51.332;12.410;2023-03-31T08:25:23;4.47;;;1.35;;
55601;SDS011;59921;51.332;12.410;2023-03-31T08:27:49;3.60;;;1.23;;
55601;SDS011;59921;51.332;12.410;2023-03-31T08:30:17;2.05;;;0.90;;
55601;SDS011;59921;51.332;12.410;2023-03-31T08:32:43;3.75;;;1.10;;
55601;SDS011;59921;51.332;12.410;2023-03-31T08:35:09;5.30;;;1.20;;
55601;SDS011;59921;51.332;12.410;2023-03-31T08:37:38;4.82;;;1.42;;
55601;SDS011;59921;51.332;12.410;2023-03-31T08:40:04;3.58;;;1.20;;
55601;SDS011;59921;51.332;12.410;2023-03-31T08:45:03;5.68;;;1.20;;
55601;SDS011;59921;51.332;12.410;2023-03-31T08:47:52;4.32;;;1.48;;
55601;SDS011;59921;51.332;12.410;2023-03-31T08:50:20;5.53;;;1.20;;
55601;SDS011;59921;51.332;12.410;2023-03-31T08:52:51;3.08;;;1.25;;
55601;SDS011;59921;51.332;12.410;2023-03-31T08:55:26;3.50;;;1.23;;
55601;SDS011;59921;51.332;12.410;2023-03-31T08:58:12;3.08;;;1.00;;
55601;SDS011;59921;51.332;12.410;2023-03-31T09:03:39;3.10;;;1.17;;
55601;SDS011;59921;51.332;12.410;2023-03-31T09:12:15;3.33;;;1.08;;
55601;SDS011;59921;51.332;12.410;2023-03-31T09:17:25;2.45;;;1.10;;
55601;SDS011;59921;51.332;12.410;2023-03-31T09:20:13;3.22;;;1.05;;
55601;SDS011;59921;51.332;12.410;2023-03-31T09:22:50;3.30;;;1.05;;
55601;SDS011;59921;51.332;12.410;2023-03-31T09:27:49;3.25;;;0.90;;
55601;SDS011;59921;51.332;12.410;2023-03-31T09:33:15;2.83;;;1.00;;
55601;SDS011;59921;51.332;12.410;2023-03-31T09:35:42;3.22;;;1.10;;
55601;SDS011;59921;51.332;12.410;2023-03-31T09:38:11;2.05;;;1.00;;
55601;SDS011;59921;51.332;12.410;2023-03-31T09:40:38;2.55;;;0.90;;
55601;SDS011;59921;51.332;12.410;2023-03-31T09:45:41;1.88;;;1.00;;
55601;SDS011;59921;51.332;12.410;2023-03-31T09:48:15;3.97;;;1.00;;
55601;SDS011;59921;51.332;12.410;2023-03-31T09:50:45;2.60;;;0.80;;
55601;SDS011;59921;51.332;12.410;2023-03-31T09:53:17;3.00;;;1.27;;
55601;SDS011;59921;51.332;12.410;2023-03-31T09:58:16;4.13;;;1.00;;
55601;SDS011;59921;51.332;12.410;2023-03-31T10:00:43;1.98;;;1.10;;
55601;SDS011;59921;51.332;12.410;2023-03-31T10:03:22;1.65;;;1.10;;
55601;SDS011;59921;51.332;12.410;2023-03-31T10:05:49;2.28;;;0.90;;
55601;SDS011;59921;51.332;12.410;2023-03-31T10:10:45;2.85;;;1.23;;
55601;SDS011;59921;51.332;12.410;2023-03-31T10:13:21;2.58;;;1.10;;
55601;SDS011;59921;51.332;12.410;2023-03-31T10:15:53;2.17;;;1.10;;
55601;SDS011;59921;51.332;12.410;2023-03-31T10:18:31;3.47;;;1.10;;
55601;SDS011;59921;51.332;12.410;2023-03-31T10:21:02;1.85;;;0.90;;
55601;SDS011;59921;51.332;12.410;2023-03-31T10:23:30;3.20;;;1.17;;
55601;SDS011;59921;51.332;12.410;2023-03-31T10:25:58;2.45;;;1.10;;
55601;SDS011;59921;51.332;12.410;2023-03-31T10:28:25;2.70;;;1.02;;
55601;SDS011;59921;51.332;12.410;2023-03-31T10:30:54;3.08;;;1.17;;
55601;SDS011;59921;51.332;12.410;2023-03-31T10:33:23;2.35;;;1.00;;
55601;SDS011;59921;51.332;12.410;2023-03-31T10:35:54;1.88;;;1.10;;
55601;SDS011;59921;51.332;12.410;2023-03-31T10:38:25;2.47;;;1.10;;
55601;SDS011;59921;51.332;12.410;2023-03-31T10:40:57;1.52;;;1.10;;
55601;SDS011;59921;51.332;12.410;2023-03-31T10:43:34;2.15;;;1.05;;
55601;SDS011;59921;51.332;12.410;2023-03-31T10:46:04;2.47;;;1.00;;
55601;SDS011;59921;51.332;12.410;2023-03-31T10:48:31;1.60;;;0.90;;
55601;SDS011;59921;51.332;12.410;2023-03-31T10:51:40;2.40;;;1.00;;
55601;SDS011;59921;51.332;12.410;2023-03-31T10:53:53;2.83;;;1.10;;
55601;SDS011;59921;51.332;12.410;2023-03-31T10:56:23;2.22;;;0.93;;
55601;SDS011;59921;51.332;12.410;2023-03-31T11:08:07;1.80;;;0.90;;
55601;SDS011;59921;51.332;12.410;2023-03-31T11:23:41;2.00;;;1.10;;
55601;SDS011;59921;51.332;12.410;2023-03-31T11:29:05;1.60;;;0.93;;
55601;SDS011;59921;51.332;12.410;2023-03-31T11:42:57;2.80;;;1.20;;
55601;SDS011;59921;51.332;12.410;2023-03-31T11:45:52;2.33;;;1.00;;
55601;SDS011;59921;51.332;12.410;2023-03-31T11:48:25;2.30;;;1.17;;
55601;SDS011;59921;51.332;12.410;2023-03-31T11:51:06;1.23;;;0.90;;
55601;SDS011;59921;51.332;12.410;2023-03-31T11:53:39;1.52;;;1.00;;
55601;SDS011;59921;51.332;12.410;2023-03-31T11:56:08;3.05;;;1.27;;
55601;SDS011;59921;51.332;12.410;2023-03-31T11:58:51;2.75;;;1.05;;
55601;SDS011;59921;51.332;12.410;2023-03-31T12:06:21;2.10;;;1.00;;
55601;SDS011;59921;51.332;12.410;2023-03-31T12:11:44;2.17;;;1.35;;
55601;SDS011;59921;51.332;12.410;2023-03-31T12:16:58;2.25;;;1.00;;
55601;SDS011;59921;51.332;12.410;2023-03-31T12:19:35;1.40;;;1.00;;
55601;SDS011;59921;51.332;12.410;2023-03-31T12:24:50;1.75;;;1.00;;
55601;SDS011;59921;51.332;12.410;2023-03-31T12:27:18;1.98;;;1.10;;
55601;SDS011;59921;51.332;12.410;2023-03-31T12:29:57;2.03;;;1.10;;
55601;SDS011;59921;51.332;12.410;2023-03-31T12:32:37;1.80;;;1.05;;
55601;SDS011;59921;51.332;12.410;2023-03-31T12:48:57;1.08;;;0.90;;
55601;SDS011;59921;51.332;12.410;2023-03-31T12:51:42;2.00;;;0.88;;
55601;SDS011;59921;51.332;12.410;2023-03-31T12:59:34;2.40;;;1.10;;
55601;SDS011;59921;51.332;12.410;2023-03-31T13:04:44;1.40;;;1.00;;
55601;SDS011;59921;51.332;12.410;2023-03-31T13:07:39;2.92;;;0.90;;
55601;SDS011;59921;51.332;12.410;2023-03-31T13:12:39;1.25;;;1.10;;
55601;SDS011;59921;51.332;12.410;2023-03-31T13:15:04;2.20;;;0.90;;
55601;SDS011;59921;51.332;12.410;2023-03-31T13:17:38;2.40;;;0.98;;
55601;SDS011;59921;51.332;12.410;2023-03-31T13:22:53;1.70;;;1.00;;
55601;SDS011;59921;51.332;12.410;2023-03-31T13:25:48;1.52;;;1.00;;
55601;SDS011;59921;51.332;12.410;2023-03-31T13:30:51;1.98;;;1.13;;
55601;SDS011;59921;51.332;12.410;2023-03-31T13:47:14;1.80;;;1.02;;
55601;SDS011;59921;51.332;12.410;2023-03-31T13:52:27;1.98;;;1.10;;
55601;SDS011;59921;51.332;12.410;2023-03-31T13:55:08;1.92;;;1.10;;
55601;SDS011;59921;51.332;12.410;2023-03-31T14:14:09;1.48;;;1.05;;
55601;SDS011;59921;51.332;12.410;2023-03-31T14:16:47;1.60;;;0.98;;
55601;SDS011;59921;51.332;12.410;2023-03-31T14:24:40;2.28;;;1.17;;
55601;SDS011;59921;51.332;12.410;2023-03-31T14:27:26;1.70;;;1.08;;
55601;SDS011;59921;51.332;12.410;2023-03-31T14:30:19;2.10;;;1.10;;
55601;SDS011;59921;51.332;12.410;2023-03-31T14:38:36;1.70;;;0.98;;
55601;SDS011;59921;51.332;12.410;2023-03-31T14:41:02;1.58;;;0.90;;
55601;SDS011;59921;51.332;12.410;2023-03-31T14:43:29;1.92;;;1.10;;
55601;SDS011;59921;51.332;12.410;2023-03-31T14:46:04;1.48;;;0.93;;
55601;SDS011;59921;51.332;12.410;2023-03-31T14:48:50;1.85;;;0.90;;
55601;SDS011;59921;51.332;12.410;2023-03-31T14:51:17;1.15;;;0.70;;
55601;SDS011;59921;51.332;12.410;2023-03-31T14:53:54;2.00;;;1.13;;
55601;SDS011;59921;51.332;12.410;2023-03-31T14:56:24;1.52;;;0.93;;
55601;SDS011;59921;51.332;12.410;2023-03-31T14:58:57;1.15;;;0.82;;
55601;SDS011;59921;51.332;12.410;2023-03-31T15:01:27;1.50;;;0.90;;
55601;SDS011;59921;51.332;12.410;2023-03-31T15:03:58;1.83;;;0.90;;
55601;SDS011;59921;51.332;12.410;2023-03-31T15:06:25;1.30;;;0.90;;
55601;SDS011;59921;51.332;12.410;2023-03-31T15:08:51;1.30;;;0.80;;
55601;SDS011;59921;51.332;12.410;2023-03-31T15:11:20;1.60;;;1.00;;
55601;SDS011;59921;51.332;12.410;2023-03-31T15:13:50;1.13;;;0.80;;
55601;SDS011;59921;51.332;12.410;2023-03-31T15:18:54;1.70;;;1.00;;
55601;SDS011;59921;51.332;12.410;2023-03-31T15:21:22;1.02;;;0.85;;
55601;SDS011;59921;51.332;12.410;2023-03-31T15:23:54;1.50;;;1.00;;
55601;SDS011;59921;51.332;12.410;2023-03-31T15:26:21;1.38;;;0.90;;
55601;SDS011;59921;51.332;12.410;2023-03-31T15:28:53;1.95;;;1.00;;
55601;SDS011;59921;51.332;12.410;2023-03-31T15:31:24;1.00;;;0.90;;
55601;SDS011;59921;51.332;12.410;2023-03-31T15:33:51;1.55;;;0.90;;
55601;SDS011;59921;51.332;12.410;2023-03-31T15:36:17;1.42;;;0.88;;
55601;SDS011;59921;51.332;12.410;2023-03-31T15:38:45;2.03;;;0.90;;
55601;SDS011;59921;51.332;12.410;2023-03-31T15:41:12;1.25;;;0.80;;
55601;SDS011;59921;51.332;12.410;2023-03-31T15:43:49;1.40;;;0.90;;
55601;SDS011;59921;51.332;12.410;2023-03-31T15:49:03;2.03;;;0.90;;
55601;SDS011;59921;51.332;12.410;2023-03-31T15:51:32;0.82;;;0.70;;
55601;SDS011;59921;51.332;12.410;2023-03-31T15:54:00;1.45;;;0.90;;
55601;SDS011;59921;51.332;12.410;2023-03-31T15:56:44;1.40;;;0.93;;
55601;SDS011;59921;51.332;12.410;2023-03-31T16:01:48;1.23;;;1.02;;
55601;SDS011;59921;51.332;12.410;2023-03-31T16:04:15;1.30;;;0.85;;
55601;SDS011;59921;51.332;12.410;2023-03-31T16:06:44;1.42;;;0.90;;
55601;SDS011;59921;51.332;12.410;2023-03-31T16:09:12;1.70;;;1.00;;
55601;SDS011;59921;51.332;12.410;2023-03-31T16:11:58;1.58;;;0.90;;
55601;SDS011;59921;51.332;12.410;2023-03-31T16:17:03;1.23;;;0.73;;
55601;SDS011;59921;51.332;12.410;2023-03-31T16:19:40;1.20;;;0.70;;
55601;SDS011;59921;51.332;12.410;2023-03-31T16:22:33;1.38;;;0.80;;
55601;SDS011;59921;51.332;12.410;2023-03-31T16:25:12;1.10;;;0.82;;
55601;SDS011;59921;51.332;12.410;2023-03-31T16:27:42;1.05;;;0.70;;
55601;SDS011;59921;51.332;12.410;2023-03-31T16:30:15;0.95;;;0.70;;
55601;SDS011;59921;51.332;12.410;2023-03-31T16:33:01;1.20;;;0.90;;
55601;SDS011;59921;51.332;12.410;2023-03-31T16:35:35;2.03;;;0.88;;
55601;SDS011;59921;51.332;12.410;2023-03-31T16:38:06;1.20;;;0.80;;
55601;SDS011;59921;51.332;12.410;2023-03-31T16:40:35;1.65;;;0.77;;
55601;SDS011;59921;51.332;12.410;2023-03-31T16:43:06;2.10;;;0.90;;
55601;SDS011;59921;51.332;12.410;2023-03-31T16:45:40;1.70;;;0.90;;
55601;SDS011;59921;51.332;12.410;2023-03-31T16:48:09;1.25;;;0.80;;
55601;SDS011;59921;51.332;12.410;2023-03-31T16:50:35;1.45;;;0.90;;
55601;SDS011;59921;51.332;12.410;2023-03-31T16:53:00;0.82;;;0.70;;
55601;SDS011;59921;51.332;12.410;2023-03-31T16:55:29;1.08;;;0.80;;
55601;SDS011;59921;51.332;12.410;2023-03-31T16:57:58;2.15;;;0.85;;
55601;SDS011;59921;51.332;12.410;2023-03-31T17:00:31;1.50;;;1.00;;
55601;SDS011;59921;51.332;12.410;2023-03-31T17:03:02;1.83;;;0.80;;
55601;SDS011;59921;51.332;12.410;2023-03-31T17:05:29;1.83;;;0.98;;
55601;SDS011;59921;51.332;12.410;2023-03-31T17:07:58;1.38;;;0.90;;
55601;SDS011;59921;51.332;12.410;2023-03-31T17:10:24;1.23;;;0.90;;
55601;SDS011;59921;51.332;12.410;2023-03-31T17:12:50;1.33;;;0.90;;
55601;SDS011;59921;51.332;12.410;2023-03-31T17:15:16;1.90;;;0.93;;
55601;SDS011;59921;51.332;12.410;2023-03-31T17:17:41;1.60;;;0.90;;
55601;SDS011;59921;51.332;12.410;2023-03-31T17:20:08;1.10;;;0.90;;
55601;SDS011;59921;51.332;12.410;2023-03-31T17:22:34;1.52;;;0.90;;
55601;SDS011;59921;51.332;12.410;2023-03-31T17:25:00;1.42;;;0.82;;
55601;SDS011;59921;51.332;12.410;2023-03-31T17:27:27;1.30;;;1.08;;
55601;SDS011;59921;51.332;12.410;2023-03-31T17:29:54;1.40;;;0.82;;
55601;SDS011;59921;51.332;12.410;2023-03-31T17:32:20;2.13;;;1.00;;
55601;SDS011;59921;51.332;12.410;2023-03-31T17:34:46;1.30;;;1.00;;
55601;SDS011;59921;51.332;12.410;2023-03-31T17:37:15;1.77;;;0.90;;
55601;SDS011;59921;51.332;12.410;2023-03-31T17:39:42;1.02;;;0.82;;
55601;SDS011;59921;51.332;12.410;2023-03-31T17:42:09;1.10;;;0.88;;
55601;SDS011;59921;51.332;12.410;2023-03-31T17:44:36;1.77;;;0.90;;
55601;SDS011;59921;51.332;12.410;2023-03-31T17:47:01;1.48;;;1.02;;
55601;SDS011;59921;51.332;12.410;2023-03-31T17:49:27;1.70;;;0.90;;
55601;SDS011;59921;51.332;12.410;2023-03-31T17:51:53;1.70;;;1.10;;
55601;SDS011;59921;51.332;12.410;2023-03-31T17:54:19;1.38;;;0.90;;
55601;SDS011;59921;51.332;12.410;2023-03-31T17:56:44;1.88;;;1.10;;
55601;SDS011;59921;51.332;12.410;2023-03-31T17:59:13;1.55;;;1.10;;
55601;SDS011;59921;51.332;12.410;2023-03-31T18:01:39;2.17;;;1.10;;
55601;SDS011;59921;51.332;12.410;2023-03-31T18:04:04;1.85;;;1.20;;
55601;SDS011;59921;51.332;12.410;2023-03-31T18:06:31;1.80;;;1.05;;
55601;SDS011;59921;51.332;12.410;2023-03-31T18:08:57;1.83;;;1.15;;
55601;SDS011;59921;51.332;12.410;2023-03-31T18:11:23;1.77;;;1.10;;
55601;SDS011;59921;51.332;12.410;2023-03-31T18:13:48;2.28;;;1.20;;